Time;durP1;ratioP1;P1;durP2;ratioP2;P2;SDS_P1;SDS_P2;PMS_P1;PMS_P2;Temp;Humidity;BMP_temperature;BMP_pressure;BME280_temperature;BME280_humidity;BME280_pressure;Samples;Min_cycle;Max_cycle;Signal;HPM_P1;HPM_P2
2024/01/24 00:01:09;;;;;;;3.10;1.37;;;9.90;69.70;;;;;;5028845;28;20847;-71
2024/01/24 00:03:36;;;;;;;7.33;1.80;;;10.00;69.40;;;;;;5020971;28;20324;-72
2024/01/24 00:06:02;;;;;;;6.90;1.40;;;10.10;69.40;;;;;;5039770;28;20619;-72
2024/01/24 00:08:27;;;;;;;6.33;1.63;;;10.20;69.10;;;;;;5025735;28;20437;-70
2024/01/24 00:10:53;;;;;;;7.13;1.80;;;10.20;69.10;;;;;;5027029;28;20692;-69
2024/01/24 00:13:19;;;;;;;6.07;1.90;;;10.20;69.40;;;;;;5025421;28;20177;-70
2024/01/24 00:15:44;;;;;;;4.73;1.50;;;10.20;69.40;;;;;;5031728;28;20557;-70
2024/01/24 00:18:10;;;;;;;4.27;1.60;;;10.30;69.40;;;;;;5019254;28;20182;-70
2024/01/24 00:20:35;;;;;;;6.63;1.83;;;10.30;69.20;;;;;;5025131;28;20316;-71
2024/01/24 00:23:01;;;;;;;5.13;1.70;;;10.40;69.10;;;;;;5018666;28;20190;-72
2024/01/24 00:25:26;;;;;;;9.50;1.70;;;10.40;68.80;;;;;;5031472;28;20193;-71
2024/01/24 00:27:52;;;;;;;3.83;1.60;;;10.40;68.90;;;;;;5023883;28;20205;-72
2024/01/24 00:30:18;;;;;;;4.60;1.60;;;10.40;68.90;;;;;;5028095;28;20220;-72
2024/01/24 00:32:43;;;;;;;4.33;1.57;;;10.50;68.80;;;;;;5019717;28;20240;-70
2024/01/24 00:35:09;;;;;;;4.17;1.67;;;10.50;68.80;;;;;;5027398;28;20212;-71
2024/01/24 00:37:34;;;;;;;3.40;2.60;;;10.50;68.90;;;;;;5021708;28;20193;-70
2024/01/24 00:40:00;;;;;;;7.63;1.40;;;10.50;68.90;;;;;;5029366;28;20728;-71
2024/01/24 00:42:25;;;;;;;4.97;1.77;;;10.50;68.90;;;;;;5027707;28;20189;-70
2024/01/24 00:44:51;;;;;;;3.57;1.30;;;10.50;68.90;;;;;;5026026;28;20195;-72
2024/01/24 00:47:19;;;;;;;4.97;1.70;;;10.60;68.90;;;;;;5025002;28;20184;-72
2024/01/24 00:49:44;;;;;;;11.27;1.70;;;10.50;69.10;;;;;;5031045;28;20425;-73
2024/01/24 00:52:10;;;;;;;5.60;1.50;;;10.60;68.90;;;;;;5020999;28;20489;-75
2024/01/24 00:54:35;;;;;;;5.80;1.60;;;10.70;68.90;;;;;;5023013;28;20192;-71
2024/01/24 00:57:01;;;;;;;6.37;1.63;;;10.70;68.90;;;;;;5022705;28;20650;-72
2024/01/24 00:59:27;;;;;;;9.50;1.40;;;10.60;69.10;;;;;;5031480;28;20521;-71
2024/01/24 01:01:52;;;;;;;3.80;1.20;;;10.70;69.10;;;;;;5028144;28;20827;-74
2024/01/24 01:04:18;;;;;;;2.73;1.07;;;10.80;68.80;;;;;;5024949;28;20736;-74
2024/01/24 01:06:43;;;;;;;9.13;2.10;;;10.80;68.60;;;;;;5037866;28;20200;-73
2024/01/24 01:09:09;;;;;;;4.10;1.43;;;10.80;68.50;;;;;;5031633;28;20189;-74
2024/01/24 01:11:34;;;;;;;3.00;1.33;;;10.80;68.90;;;;;;5024520;28;20690;-71
2024/01/24 01:14:00;;;;;;;4.53;1.03;;;10.90;68.50;;;;;;5021363;28;20205;-72
2024/01/24 01:16:26;;;;;;;5.97;1.80;;;10.90;68.50;;;;;;5029600;28;20189;-72
2024/01/24 01:18:51;;;;;;;3.47;1.20;;;10.90;68.50;;;;;;5031370;28;20195;-72
2024/01/24 01:21:17;;;;;;;4.43;1.43;;;10.90;68.60;;;;;;5026467;28;20284;-72
2024/01/24 01:23:42;;;;;;;2.60;1.27;;;10.90;68.80;;;;;;5025655;28;20208;-73
2024/01/24 01:26:08;;;;;;;2.60;1.33;;;10.90;68.80;;;;;;5037424;28;20263;-72
2024/01/24 01:28:34;;;;;;;3.60;1.43;;;10.90;68.80;;;;;;5026342;28;20181;-73
2024/01/24 01:31:00;;;;;;;3.63;1.13;;;10.90;68.80;;;;;;5025308;28;20640;-73
2024/01/24 01:33:26;;;;;;;1.73;1.10;;;10.90;68.80;;;;;;5014849;28;20524;-72
2024/01/24 01:35:51;;;;;;;2.73;1.33;;;10.90;68.90;;;;;;5035559;28;20181;-71
2024/01/24 01:38:17;;;;;;;9.40;1.90;;;10.90;68.90;;;;;;5022930;28;20420;-72
2024/01/24 01:40:42;;;;;;;5.80;1.20;;;10.90;68.90;;;;;;5026577;28;20209;-73
2024/01/24 01:43:11;;;;;;;4.90;1.40;;;10.90;69.10;;;;;;5017138;28;20228;-71
2024/01/24 01:45:37;;;;;;;3.57;1.33;;;10.90;69.10;;;;;;5030981;28;20651;-70
2024/01/24 01:48:03;;;;;;;6.43;1.43;;;10.90;69.40;;;;;;5036274;28;20530;-71
2024/01/24 01:50:29;;;;;;;4.63;1.17;;;10.90;69.40;;;;;;5029078;28;20521;-71
2024/01/24 01:52:54;;;;;;;4.00;1.30;;;10.90;69.40;;;;;;5022042;28;20515;-73
2024/01/24 01:55:21;;;;;;;5.43;1.60;;;10.90;69.50;;;;;;5035044;28;20276;-72
2024/01/24 01:57:47;;;;;;;4.50;1.50;;;10.90;69.50;;;;;;5030717;28;20185;-73
2024/01/24 02:00:20;;;;;;;3.97;1.67;;;10.90;69.50;;;;;;5034231;28;20479;-73
2024/01/24 02:02:46;;;;;;;4.80;1.40;;;10.90;69.50;;;;;;5037243;28;20420;-72
2024/01/24 02:05:12;;;;;;;1.93;1.07;;;10.90;69.50;;;;;;5027750;28;20909;-72
2024/01/24 02:07:37;;;;;;;3.60;1.47;;;10.90;69.50;;;;;;5028279;28;20425;-70
2024/01/24 02:10:03;;;;;;;3.57;1.17;;;10.90;69.70;;;;;;5023762;28;20233;-73
2024/01/24 02:12:29;;;;;;;3.90;1.30;;;11.00;69.50;;;;;;5023007;28;20296;-71
2024/01/24 02:14:54;;;;;;;6.40;1.80;;;10.90;69.70;;;;;;5031878;28;20188;-70
2024/01/24 02:17:20;;;;;;;6.10;1.30;;;10.90;69.50;;;;;;5043224;28;20220;-71
2024/01/24 02:19:46;;;;;;;7.00;1.40;;;10.90;69.50;;;;;;5028267;28;20283;-72
2024/01/24 02:22:11;;;;;;;4.13;1.50;;;10.90;69.50;;;;;;5029058;28;20193;-72
2024/01/24 02:24:37;;;;;;;2.60;1.50;;;10.90;69.70;;;;;;5031768;28;20568;-73
2024/01/24 02:27:03;;;;;;;2.50;1.30;;;10.80;69.70;;;;;;5032724;28;20659;-71
2024/01/24 02:29:29;;;;;;;4.30;1.30;;;10.80;69.90;;;;;;5023110;28;20213;-72
2024/01/24 02:31:55;;;;;;;10.03;1.47;;;10.90;69.90;;;;;;5027703;28;20507;-71
2024/01/24 02:34:21;;;;;;;4.50;1.43;;;10.90;69.90;;;;;;5024972;28;20208;-71
2024/01/24 02:36:47;;;;;;;5.03;1.13;;;10.90;69.80;;;;;;5038351;28;20570;-72
2024/01/24 02:39:12;;;;;;;3.83;1.30;;;11.00;69.90;;;;;;5024788;28;20670;-73
2024/01/24 02:41:40;;;;;;;10.20;1.23;;;11.00;69.90;;;;;;5027343;28;20212;-72
2024/01/24 02:44:06;;;;;;;5.63;2.70;;;11.00;69.90;;;;;;5023424;28;20692;-71
2024/01/24 02:46:31;;;;;;;4.63;1.47;;;10.90;70.20;;;;;;5031595;28;20425;-71
2024/01/24 02:48:57;;;;;;;4.57;1.27;;;11.00;70.40;;;;;;5029648;28;20188;-72
2024/01/24 02:51:26;;;;;;;3.70;1.30;;;11.00;70.40;;;;;;5027996;28;20202;-73
2024/01/24 02:53:52;;;;;;;3.40;1.30;;;11.00;70.50;;;;;;5025451;28;20185;-73
2024/01/24 02:56:19;;;;;;;4.23;1.10;;;11.00;70.50;;;;;;5026800;28;20432;-72
2024/01/24 02:58:45;;;;;;;4.23;1.20;;;11.00;70.70;;;;;;5030010;28;20473;-72
2024/01/24 03:01:11;;;;;;;4.00;1.33;;;11.00;71.00;;;;;;5022436;28;20920;-72
2024/01/24 03:03:39;;;;;;;6.00;2.53;;;11.00;71.00;;;;;;5024790;28;20500;-72
2024/01/24 03:06:05;;;;;;;2.63;1.30;;;11.00;71.10;;;;;;5023562;28;20243;-72
2024/01/24 03:08:46;;;;;;;4.97;1.27;;;11.00;71.30;;;;;;5021801;28;20424;-72
2024/01/24 03:11:11;;;;;;;5.80;1.13;;;11.00;71.40;;;;;;5023636;28;20468;-72
2024/01/24 03:13:38;;;;;;;2.37;1.20;;;11.00;71.60;;;;;;5027489;28;20456;-71
2024/01/24 03:16:04;;;;;;;2.83;1.10;;;11.10;71.60;;;;;;5023183;28;20200;-71
2024/01/24 03:18:29;;;;;;;2.00;1.07;;;11.10;71.60;;;;;;5029177;28;20556;-70
2024/01/24 03:20:55;;;;;;;1.70;1.37;;;11.20;71.60;;;;;;5026322;28;20479;-71
2024/01/24 03:23:24;;;;;;;2.40;0.97;;;11.20;71.60;;;;;;5033848;28;20217;-73
2024/01/24 03:25:50;;;;;;;3.20;1.80;;;11.30;71.40;;;;;;5025195;28;20185;-72
2024/01/24 03:28:15;;;;;;;3.13;1.30;;;11.20;71.60;;;;;;5031126;28;20967;-73
2024/01/24 03:30:41;;;;;;;2.97;1.30;;;11.20;71.70;;;;;;5025361;28;20197;-72
2024/01/24 03:33:06;;;;;;;5.57;1.00;;;11.20;71.80;;;;;;5029268;28;20569;-71
2024/01/24 03:35:32;;;;;;;4.87;1.20;;;11.30;71.80;;;;;;5025043;28;20182;-72
2024/01/24 03:37:58;;;;;;;4.63;1.20;;;11.30;71.60;;;;;;5032285;28;20181;-72
2024/01/24 03:40:23;;;;;;;3.13;1.10;;;11.30;71.80;;;;;;5021892;28;20295;-71
2024/01/24 03:42:49;;;;;;;5.70;1.20;;;11.30;71.70;;;;;;5033789;28;20181;-71
2024/01/24 03:45:14;;;;;;;4.10;1.53;;;11.40;71.60;;;;;;5029493;28;20186;-70
2024/01/24 03:47:40;;;;;;;7.13;1.53;;;11.40;71.60;;;;;;5027890;28;20681;-70
2024/01/24 03:50:06;;;;;;;3.63;1.10;;;11.40;71.70;;;;;;5021624;28;20242;-71
2024/01/24 03:52:32;;;;;;;8.57;2.00;;;11.40;71.80;;;;;;5023803;28;20190;-72
2024/01/24 03:54:57;;;;;;;4.23;1.57;;;11.40;71.80;;;;;;5026385;28;20485;-71
2024/01/24 03:57:23;;;;;;;8.40;1.30;;;11.40;71.80;;;;;;5025305;28;20193;-70
2024/01/24 03:59:48;;;;;;;3.70;1.10;;;11.40;71.80;;;;;;5021653;28;20635;-70
2024/01/24 04:02:14;;;;;;;3.10;1.80;;;11.50;71.80;;;;;;5026666;28;20197;-71
2024/01/24 04:04:40;;;;;;;2.80;1.53;;;11.50;72.00;;;;;;5030408;28;20181;-70
2024/01/24 04:07:05;;;;;;;5.80;1.60;;;11.50;72.00;;;;;;5029960;28;20216;-71
2024/01/24 04:09:31;;;;;;;2.70;1.83;;;11.50;72.10;;;;;;5023612;28;20662;-71
2024/01/24 04:11:57;;;;;;;3.90;1.73;;;11.50;72.10;;;;;;5024425;28;20201;-70
2024/01/24 04:14:22;;;;;;;3.37;1.50;;;11.60;72.10;;;;;;5022914;28;20188;-71
2024/01/24 04:16:48;;;;;;;6.23;1.50;;;11.60;72.10;;;;;;5022001;28;20432;-71
2024/01/24 04:19:14;;;;;;;5.50;1.50;;;11.70;72.40;;;;;;5027233;28;20193;-70
2024/01/24 04:21:45;;;;;;;2.00;1.00;;;11.70;72.10;;;;;;5025297;28;20318;-70
2024/01/24 04:24:11;;;;;;;4.40;1.63;;;11.80;72.10;;;;;;5026152;28;20196;-71
2024/01/24 04:26:37;;;;;;;3.20;1.60;;;11.70;72.30;;;;;;5023332;28;20412;-72
2024/01/24 04:29:03;;;;;;;3.87;1.40;;;11.80;72.10;;;;;;5022285;28;20186;-72
2024/01/24 04:31:28;;;;;;;5.77;1.37;;;11.80;72.30;;;;;;5026227;28;20307;-71
2024/01/24 04:33:55;;;;;;;2.63;1.20;;;11.80;72.30;;;;;;5019923;28;20240;-71
2024/01/24 04:36:20;;;;;;;6.40;2.00;;;11.80;72.60;;;;;;5024381;28;20208;-70
2024/01/24 04:38:46;;;;;;;1.63;1.23;;;11.80;72.70;;;;;;5027538;28;20491;-71
2024/01/24 04:41:12;;;;;;;2.77;1.80;;;11.80;72.60;;;;;;5017545;28;20224;-71
2024/01/24 04:43:39;;;;;;;5.00;1.53;;;11.70;72.70;;;;;;5022692;28;20813;-72
2024/01/24 04:46:13;;;;;;;8.73;1.53;;;11.80;72.90;;;;;;5014949;28;20576;-72
2024/01/24 04:48:38;;;;;;;2.13;1.50;;;11.80;72.90;;;;;;5022470;28;20417;-71
2024/01/24 04:51:04;;;;;;;3.60;1.60;;;11.80;73.00;;;;;;5023607;28;20468;-71
2024/01/24 04:53:29;;;;;;;2.80;1.27;;;11.80;73.20;;;;;;5022122;28;20186;-72
2024/01/24 04:55:55;;;;;;;5.40;1.50;;;11.80;73.30;;;;;;5025997;28;20216;-72
2024/01/24 04:58:21;;;;;;;4.03;1.37;;;11.80;73.30;;;;;;5028714;28;20213;-73
2024/01/24 05:00:47;;;;;;;2.60;1.50;;;11.90;73.30;;;;;;5019660;28;20217;-71
2024/01/24 05:03:14;;;;;;;2.50;1.33;;;11.90;73.50;;;;;;5024202;28;20328;-72
2024/01/24 05:05:40;;;;;;;11.07;1.90;;;11.80;73.70;;;;;;5026041;28;20420;-69
2024/01/24 05:08:06;;;;;;;7.90;1.83;;;11.90;73.90;;;;;;5030355;28;20486;-71
2024/01/24 05:10:32;;;;;;;4.67;1.43;;;11.90;73.90;;;;;;5021465;28;20472;-72
2024/01/24 05:12:57;;;;;;;4.23;1.60;;;11.90;74.00;;;;;;5023166;28;20470;-73
2024/01/24 05:15:23;;;;;;;2.57;1.30;;;11.90;74.20;;;;;;5018408;28;20178;-73
2024/01/24 05:17:49;;;;;;;2.60;1.20;;;11.90;74.20;;;;;;5027075;28;20208;-72
2024/01/24 05:20:17;;;;;;;2.80;1.30;;;11.90;74.30;;;;;;5028567;28;20907;-72
2024/01/24 05:22:43;;;;;;;3.93;1.40;;;11.90;74.30;;;;;;5020880;28;20657;-71
2024/01/24 05:25:08;;;;;;;5.63;1.57;;;12.00;74.30;;;;;;5032551;28;20462;-71
2024/01/24 05:27:34;;;;;;;2.10;1.07;;;12.00;74.50;;;;;;5024302;28;20421;-72
2024/01/24 05:30:00;;;;;;;3.27;1.70;;;12.00;74.50;;;;;;5034180;28;20258;-73
2024/01/24 05:32:26;;;;;;;4.77;1.70;;;12.10;74.30;;;;;;5014163;28;20182;-71
2024/01/24 05:34:52;;;;;;;6.13;2.07;;;12.10;74.50;;;;;;5017647;28;20190;-71
2024/01/24 05:37:18;;;;;;;4.03;1.70;;;12.00;74.60;;;;;;5013093;28;20425;-72
2024/01/24 05:39:43;;;;;;;4.67;1.50;;;12.10;74.60;;;;;;5013421;28;20665;-73
2024/01/24 05:42:09;;;;;;;4.17;1.50;;;12.20;74.60;;;;;;5016786;28;20221;-71
2024/01/24 05:44:35;;;;;;;3.63;1.20;;;12.20;74.50;;;;;;5028085;28;20510;-71
2024/01/24 05:47:00;;;;;;;4.47;1.40;;;12.30;74.60;;;;;;5036186;28;20243;-71
2024/01/24 05:49:26;;;;;;;12.20;1.63;;;12.30;74.50;;;;;;5032175;28;20331;-72
2024/01/24 05:51:52;;;;;;;3.00;1.30;;;12.30;74.50;;;;;;5024326;28;20208;-72
2024/01/24 05:54:17;;;;;;;4.60;1.40;;;12.30;74.60;;;;;;5021993;28;20186;-71
2024/01/24 05:56:43;;;;;;;4.47;1.43;;;12.40;74.60;;;;;;5031057;28;20189;-72
2024/01/24 05:59:09;;;;;;;5.40;1.70;;;12.40;74.80;;;;;;5033487;28;20199;-73
2024/01/24 06:01:35;;;;;;;5.13;1.57;;;12.30;74.90;;;;;;5020501;28;20236;-72
2024/01/24 06:04:01;;;;;;;2.00;1.10;;;12.40;75.10;;;;;;5030195;28;20430;-70
2024/01/24 06:06:26;;;;;;;2.60;1.70;;;12.40;75.20;;;;;;5037279;28;20180;-72
2024/01/24 06:08:52;;;;;;;2.37;1.40;;;12.40;75.40;;;;;;5036722;28;20444;-72
2024/01/24 06:11:18;;;;;;;4.90;1.43;;;12.40;75.50;;;;;;5019776;28;20536;-73
2024/01/24 06:13:43;;;;;;;4.20;2.03;;;12.40;75.70;;;;;;5021517;28;20429;-71
2024/01/24 06:16:09;;;;;;;3.90;1.53;;;12.40;75.80;;;;;;5022393;28;20191;-71
2024/01/24 06:18:35;;;;;;;2.47;1.37;;;12.40;75.90;;;;;;5030564;28;20189;-72
2024/01/24 06:21:01;;;;;;;3.40;1.53;;;12.40;75.90;;;;;;5030669;28;20567;-73
2024/01/24 06:23:26;;;;;;;4.23;1.30;;;12.40;75.90;;;;;;5024288;28;20287;-73
2024/01/24 06:25:52;;;;;;;3.73;1.20;;;12.40;76.10;;;;;;5041626;28;20196;-72
2024/01/24 06:28:17;;;;;;;4.97;1.50;;;12.40;76.10;;;;;;5032069;28;20200;-71
2024/01/24 06:30:43;;;;;;;1.60;1.00;;;12.40;76.40;;;;;;5029993;28;20205;-72
2024/01/24 06:33:09;;;;;;;3.10;1.50;;;12.40;76.50;;;;;;5018825;28;20190;-73
2024/01/24 06:35:34;;;;;;;2.37;1.10;;;12.40;76.50;;;;;;5028675;28;20194;-72
2024/01/24 06:38:01;;;;;;;10.70;1.83;;;12.40;76.50;;;;;;5021273;28;20331;-74
2024/01/24 06:40:27;;;;;;;2.47;1.07;;;12.50;76.50;;;;;;5032330;28;20483;-72
2024/01/24 06:42:52;;;;;;;2.63;1.30;;;12.50;76.50;;;;;;5016154;28;20482;-71
2024/01/24 06:45:18;;;;;;;1.60;1.40;;;12.50;76.50;;;;;;5029843;28;20201;-72
2024/01/24 06:47:44;;;;;;;3.50;1.50;;;12.50;76.50;;;;;;5022676;28;20200;-73
2024/01/24 06:50:13;;;;;;;7.13;2.40;;;12.50;76.70;;;;;;5026032;28;20205;-71
2024/01/24 06:52:41;;;;;;;2.83;1.20;;;12.50;76.70;;;;;;5020318;28;20189;-70
2024/01/24 06:55:08;;;;;;;2.37;1.43;;;12.40;76.80;;;;;;5032636;28;20465;-70
2024/01/24 06:57:34;;;;;;;2.30;1.30;;;12.40;77.40;;;;;;5023085;28;20419;-68
2024/01/24 07:00:00;;;;;;;3.33;1.30;;;12.40;78.10;;;;;;5026993;28;20477;-71
2024/01/24 07:02:26;;;;;;;4.20;1.53;;;12.30;78.40;;;;;;5026119;28;20230;-72
2024/01/24 07:04:51;;;;;;;3.10;1.40;;;12.30;78.30;;;;;;5024963;28;20202;-72
2024/01/24 07:07:17;;;;;;;2.60;1.13;;;12.30;78.40;;;;;;5028700;28;20637;-72
2024/01/24 07:09:43;;;;;;;2.63;0.90;;;12.40;78.30;;;;;;5031398;28;20268;-70
2024/01/24 07:12:09;;;;;;;3.97;1.50;;;12.40;77.80;;;;;;5025088;28;20654;-72
2024/01/24 07:14:34;;;;;;;2.27;1.13;;;12.40;77.70;;;;;;5028294;28;20624;-71
2024/01/24 07:17:00;;;;;;;3.63;1.57;;;12.40;77.70;;;;;;5023322;28;20189;-71
2024/01/24 07:19:26;;;;;;;1.57;1.00;;;12.50;77.60;;;;;;5029059;28;20214;-71
2024/01/24 07:21:52;;;;;;;4.17;1.60;;;12.50;77.60;;;;;;5029073;28;20223;-73
2024/01/24 07:24:17;;;;;;;12.10;2.07;;;12.50;77.70;;;;;;5031648;28;20460;-72
2024/01/24 07:26:43;;;;;;;2.20;1.00;;;12.50;77.60;;;;;;5041901;28;20205;-72
2024/01/24 07:29:10;;;;;;;3.37;1.40;;;12.50;77.70;;;;;;5032509;28;20190;-73
2024/01/24 07:31:36;;;;;;;7.00;1.67;;;12.60;77.60;;;;;;5028414;28;20452;-71
2024/01/24 07:34:02;;;;;;;3.67;1.10;;;12.60;77.70;;;;;;5022066;28;20558;-72
2024/01/24 07:36:27;;;;;;;5.87;1.30;;;12.60;77.70;;;;;;5036369;28;20510;-73
2024/01/24 07:38:53;;;;;;;5.80;1.37;;;12.60;77.70;;;;;;5027846;28;20192;-72
2024/01/24 07:41:19;;;;;;;6.87;1.57;;;12.60;77.80;;;;;;5029988;28;20220;-73
2024/01/24 07:43:45;;;;;;;3.10;1.37;;;12.60;77.80;;;;;;5022110;28;20190;-72
2024/01/24 07:46:11;;;;;;;2.13;1.00;;;12.70;77.80;;;;;;5035203;28;20186;-71
2024/01/24 07:48:36;;;;;;;5.40;1.13;;;12.70;77.70;;;;;;5027457;28;20836;-72
2024/01/24 07:51:06;;;;;;;1.57;1.17;;;12.70;77.70;;;;;;5020604;28;20506;-72
2024/01/24 07:53:31;;;;;;;2.10;0.80;;;12.80;77.70;;;;;;5019243;28;20209;-72
2024/01/24 07:55:57;;;;;;;2.67;1.30;;;12.80;77.60;;;;;;5030028;28;20474;-73
2024/01/24 07:58:23;;;;;;;2.57;1.10;;;12.80;77.60;;;;;;5020576;28;20193;-71
2024/01/24 08:00:48;;;;;;;2.70;0.90;;;12.90;77.30;;;;;;5031517;28;20676;-71
2024/01/24 08:03:14;;;;;;;2.67;1.50;;;12.90;77.00;;;;;;5023874;28;20215;-71
2024/01/24 08:05:39;;;;;;;2.20;1.20;;;13.00;77.00;;;;;;5033387;28;20201;-73
2024/01/24 08:08:05;;;;;;;2.17;1.07;;;13.00;76.80;;;;;;5035635;28;20180;-72
2024/01/24 08:10:31;;;;;;;3.30;1.30;;;13.00;76.70;;;;;;5028269;28;20202;-71
2024/01/24 08:12:57;;;;;;;1.60;1.07;;;13.10;76.70;;;;;;5022948;28;20646;-72
2024/01/24 08:15:22;;;;;;;1.90;1.10;;;13.10;76.40;;;;;;5026168;28;20265;-72
2024/01/24 08:17:48;;;;;;;6.10;1.40;;;13.20;76.20;;;;;;5024663;28;20276;-72
2024/01/24 08:20:14;;;;;;;6.70;1.00;;;13.10;76.20;;;;;;5030310;28;20247;-71
2024/01/24 08:22:39;;;;;;;2.77;0.90;;;13.20;76.20;;;;;;5027397;28;20251;-71
2024/01/24 08:25:06;;;;;;;2.00;1.00;;;13.20;76.10;;;;;;5031674;28;20299;-72
2024/01/24 08:27:32;;;;;;;1.67;0.90;;;13.20;76.10;;;;;;5023078;28;20272;-71
2024/01/24 08:29:57;;;;;;;1.30;0.90;;;13.20;76.10;;;;;;5031129;28;20547;-72
2024/01/24 08:32:23;;;;;;;1.70;1.00;;;13.30;76.10;;;;;;5022711;28;20216;-71
2024/01/24 08:34:49;;;;;;;2.37;0.90;;;13.30;76.10;;;;;;5025187;28;20181;-72
2024/01/24 08:37:15;;;;;;;8.20;1.33;;;13.30;76.10;;;;;;5041109;28;20185;-71
2024/01/24 08:39:41;;;;;;;1.77;0.67;;;13.30;76.20;;;;;;5028063;28;20463;-72
2024/01/24 08:42:08;;;;;;;0.70;0.60;;;13.30;76.10;;;;;;5028577;28;20205;-73
2024/01/24 08:44:33;;;;;;;1.20;0.80;;;13.30;76.20;;;;;;5019527;28;20539;-72
2024/01/24 08:46:59;;;;;;;1.20;0.63;;;13.30;76.20;;;;;;5025964;28;20493;-72
2024/01/24 08:49:25;;;;;;;1.23;0.70;;;13.40;76.20;;;;;;5020442;28;20194;-71
2024/01/24 08:51:50;;;;;;;1.47;0.70;;;13.30;76.50;;;;;;5025283;28;20709;-72
2024/01/24 08:54:16;;;;;;;2.33;0.87;;;13.30;76.50;;;;;;5017426;28;20193;-71
2024/01/24 08:56:41;;;;;;;1.30;0.70;;;13.40;76.50;;;;;;5033649;28;20186;-72
2024/01/24 08:59:07;;;;;;;1.43;0.70;;;13.40;76.50;;;;;;5024810;28;20217;-72
2024/01/24 09:01:33;;;;;;;2.03;0.93;;;13.40;76.70;;;;;;5023216;28;20225;-71
2024/01/24 09:03:58;;;;;;;1.60;0.60;;;13.40;76.80;;;;;;5023964;28;21264;-71
2024/01/24 09:06:25;;;;;;;0.80;0.60;;;13.40;77.10;;;;;;5031570;28;20189;-72
2024/01/24 09:08:52;;;;;;;2.17;0.70;;;13.40;77.10;;;;;;5026199;28;20192;-72
2024/01/24 09:11:21;;;;;;;1.40;0.80;;;13.40;77.30;;;;;;5027687;28;20471;-71
2024/01/24 09:13:47;;;;;;;1.30;0.80;;;13.40;77.30;;;;;;5025431;28;20820;-72
2024/01/24 09:16:14;;;;;;;1.53;0.90;;;13.50;77.30;;;;;;5036452;28;20552;-72
2024/01/24 09:18:40;;;;;;;1.43;0.90;;;13.50;77.30;;;;;;5021275;28;20906;-73
2024/01/24 09:21:06;;;;;;;3.13;1.03;;;13.40;77.40;;;;;;5021367;28;20479;-72
2024/01/24 09:23:32;;;;;;;3.90;0.70;;;13.40;77.70;;;;;;5020207;28;20838;-71
2024/01/24 09:25:57;;;;;;;2.33;0.87;;;13.40;77.70;;;;;;5032996;28;20303;-73
2024/01/24 09:28:23;;;;;;;1.40;0.70;;;13.40;77.80;;;;;;5025015;28;20193;-73
2024/01/24 09:30:49;;;;;;;2.30;0.90;;;13.40;78.00;;;;;;5026307;28;20205;-72
2024/01/24 09:33:15;;;;;;;1.27;0.73;;;13.30;78.10;;;;;;5022392;28;20194;-72
2024/01/24 09:35:41;;;;;;;2.03;0.60;;;13.40;78.30;;;;;;5031884;28;20297;-73
2024/01/24 09:38:06;;;;;;;1.47;0.60;;;13.30;78.60;;;;;;5033035;28;20429;-71
2024/01/24 09:40:32;;;;;;;4.53;0.93;;;13.30;79.30;;;;;;5026640;28;20439;-72
2024/01/24 09:43:01;;;;;;;2.23;1.00;;;13.20;80.00;;;;;;5023061;28;20669;-74
2024/01/24 09:45:28;;;;;;;2.20;1.10;;;13.10;80.50;;;;;;5030115;28;20626;-71
2024/01/24 09:47:56;;;;;;;17.53;2.43;;;13.10;81.10;;;;;;5028944;28;20423;-71
2024/01/24 09:50:23;;;;;;;2.10;1.00;;;13.00;81.40;;;;;;5027473;28;20479;-72
2024/01/24 09:52:50;;;;;;;2.27;0.70;;;13.00;81.50;;;;;;5020002;28;20420;-72
2024/01/24 09:55:18;;;;;;;3.33;0.63;;;13.00;81.20;;;;;;5027513;28;20511;-73
2024/01/24 09:57:45;;;;;;;1.43;0.60;;;13.10;80.50;;;;;;5029872;28;20420;-73
2024/01/24 10:00:14;;;;;;;1.50;0.70;;;13.20;80.30;;;;;;5035774;28;20488;-71
2024/01/24 10:02:43;;;;;;;0.90;0.63;;;13.20;80.20;;;;;;5024013;28;20422;-71
2024/01/24 10:05:13;;;;;;;0.70;0.50;;;13.20;80.00;;;;;;5036617;28;20449;-73
2024/01/24 10:07:41;;;;;;;2.07;0.70;;;13.30;79.90;;;;;;5023813;28;20440;-73
2024/01/24 10:10:12;;;;;;;3.67;1.10;;;13.30;79.50;;;;;;5034591;28;20475;-72
2024/01/24 10:12:41;;;;;;;7.97;0.93;;;13.40;79.50;;;;;;5037584;28;20437;-73
2024/01/24 10:15:07;;;;;;;4.57;0.80;;;13.40;79.30;;;;;;5023878;28;20461;-72
2024/01/24 10:17:33;;;;;;;2.10;0.70;;;13.50;79.30;;;;;;5027195;28;20435;-71
2024/01/24 10:19:59;;;;;;;2.97;0.70;;;13.50;78.90;;;;;;5027121;28;21068;-71
2024/01/24 10:22:24;;;;;;;0.73;0.60;;;13.60;78.90;;;;;;5023087;28;20390;-71
2024/01/24 10:24:53;;;;;;;1.00;0.50;;;13.60;79.00;;;;;;5020524;28;20257;-73
2024/01/24 10:27:19;;;;;;;1.30;0.80;;;13.50;78.70;;;;;;5029811;28;20188;-71
2024/01/24 10:29:45;;;;;;;1.27;0.70;;;13.60;78.60;;;;;;5022323;28;20459;-71
2024/01/24 10:32:10;;;;;;;0.70;0.60;;;13.60;78.60;;;;;;5023288;28;20912;-71
2024/01/24 10:34:39;;;;;;;1.17;0.80;;;13.70;78.10;;;;;;5022837;28;20186;-72
2024/01/24 10:37:10;;;;;;;2.00;0.80;;;13.80;78.00;;;;;;5025027;28;20277;-72
2024/01/24 10:39:37;;;;;;;2.40;0.70;;;13.80;77.70;;;;;;5026784;28;20489;-72
2024/01/24 10:42:06;;;;;;;1.27;0.50;;;13.90;77.40;;;;;;5025549;28;20529;-71
2024/01/24 10:44:35;;;;;;;1.00;0.70;;;13.90;77.10;;;;;;5025145;28;20420;-73
2024/01/24 10:47:02;;;;;;;1.43;0.80;;;14.00;76.70;;;;;;5042445;28;20507;-71
2024/01/24 10:49:30;;;;;;;1.10;0.80;;;14.10;76.10;;;;;;5025347;28;20544;-73
2024/01/24 10:51:56;;;;;;;2.60;0.67;;;14.10;75.90;;;;;;5023069;28;20454;-72
2024/01/24 10:54:22;;;;;;;2.47;0.60;;;14.20;75.80;;;;;;5029094;28;20424;-71
2024/01/24 10:56:50;;;;;;;1.90;0.63;;;14.20;75.80;;;;;;5041366;28;20868;-71
2024/01/24 10:59:20;;;;;;;0.70;0.50;;;14.20;75.70;;;;;;5032719;28;20996;-74
2024/01/24 11:01:47;;;;;;;1.03;0.60;;;14.30;75.70;;;;;;5022875;28;20488;-71
2024/01/24 11:04:19;;;;;;;2.00;0.70;;;14.30;75.70;;;;;;5026395;28;20426;-71
2024/01/24 11:06:51;;;;;;;1.00;0.70;;;14.20;76.20;;;;;;5027512;28;20420;-72
2024/01/24 11:09:41;;;;;;;1.10;0.53;;;14.00;78.90;;;;;;5025909;28;20496;-72
2024/01/24 11:12:07;;;;;;;0.70;0.43;;;13.70;80.50;;;;;;5017443;28;20998;-70
2024/01/24 11:14:34;;;;;;;1.17;0.77;;;13.40;81.50;;;;;;5030388;28;20434;-72
2024/01/24 11:17:03;;;;;;;0.93;0.57;;;13.20;82.80;;;;;;5024662;28;20506;-70
2024/01/24 11:19:30;;;;;;;1.23;0.70;;;13.00;83.80;;;;;;5031739;28;20424;-71
2024/01/24 11:22:05;;;;;;;2.73;0.80;;;12.80;84.90;;;;;;5029457;28;20625;-72
2024/01/24 11:24:46;;;;;;;2.43;1.07;;;12.70;85.60;;;;;;5024954;28;20420;-70
2024/01/24 11:27:35;;;;;;;1.87;0.90;;;12.60;86.20;;;;;;5032049;28;20434;-71
2024/01/24 11:30:23;;;;;;;1.77;0.90;;;12.50;86.50;;;;;;5027235;28;20419;-73
2024/01/24 11:32:54;;;;;;;2.10;0.90;;;12.50;86.60;;;;;;5027150;28;20515;-72
2024/01/24 11:35:33;;;;;;;1.87;0.87;;;12.60;86.60;;;;;;5025737;28;20528;-71
2024/01/24 11:38:22;;;;;;;1.43;0.70;;;12.60;86.60;;;;;;5040809;28;20425;-71
2024/01/24 11:40:51;;;;;;;1.60;0.60;;;12.60;86.50;;;;;;5025105;28;21554;-71
2024/01/24 11:43:27;;;;;;;1.20;0.80;;;12.60;86.50;;;;;;5026328;28;20481;-73
2024/01/24 11:46:02;;;;;;;3.10;0.80;;;12.70;86.20;;;;;;5025440;28;20430;-73
2024/01/24 11:48:32;;;;;;;10.43;1.37;;;12.70;86.20;;;;;;5029761;28;20915;-73
2024/01/24 11:51:01;;;;;;;6.27;1.00;;;12.80;85.50;;;;;;5024894;28;20817;-72
2024/01/24 11:53:28;;;;;;;4.93;1.67;;;12.90;85.00;;;;;;5020962;28;20425;-71
2024/01/24 11:55:58;;;;;;;1.30;0.70;;;12.90;84.90;;;;;;5027009;28;20434;-72
2024/01/24 11:58:29;;;;;;;1.13;0.70;;;12.90;85.20;;;;;;5026542;28;20971;-72
2024/01/24 12:00:56;;;;;;;1.40;0.80;;;12.90;84.60;;;;;;5022450;28;20467;-71
2024/01/24 12:03:22;;;;;;;1.93;0.80;;;12.90;84.70;;;;;;5019384;28;20468;-71
2024/01/24 12:05:48;;;;;;;0.80;0.60;;;12.90;83.80;;;;;;5028289;28;20479;-72
2024/01/24 12:08:14;;;;;;;1.17;0.90;;;12.90;83.70;;;;;;5023567;28;20989;-72
2024/01/24 12:10:43;;;;;;;3.50;1.50;;;13.00;82.50;;;;;;5025638;28;20535;-72
2024/01/24 12:13:09;;;;;;;4.10;1.13;;;13.10;80.50;;;;;;5022220;28;20232;-70
2024/01/24 12:15:36;;;;;;;3.50;1.23;;;13.20;79.00;;;;;;5036288;28;20429;-72
2024/01/24 12:18:07;;;;;;;2.57;1.30;;;13.30;76.50;;;;;;5025609;28;20417;-74
2024/01/24 12:20:34;;;;;;;3.70;1.10;;;13.30;76.40;;;;;;5031373;28;21046;-72
2024/01/24 12:23:01;;;;;;;3.33;1.00;;;13.30;75.70;;;;;;5026501;28;20445;-71
2024/01/24 12:25:27;;;;;;;4.50;1.00;;;13.30;76.40;;;;;;5040390;28;20466;-72
2024/01/24 12:27:54;;;;;;;3.03;0.90;;;13.30;75.90;;;;;;5030553;28;20438;-72
2024/01/24 12:30:20;;;;;;;3.50;1.27;;;13.20;76.10;;;;;;5038211;28;20464;-72
2024/01/24 12:32:46;;;;;;;1.87;0.70;;;13.30;76.50;;;;;;5027515;28;20990;-70
2024/01/24 12:35:16;;;;;;;4.40;1.27;;;13.20;76.40;;;;;;5036044;28;20431;-71
2024/01/24 12:37:41;;;;;;;2.27;1.00;;;13.20;76.10;;;;;;5023625;28;20232;-72
2024/01/24 12:40:10;;;;;;;1.53;0.97;;;13.20;76.40;;;;;;5034430;28;21030;-73
2024/01/24 12:42:37;;;;;;;3.80;0.93;;;13.20;76.20;;;;;;5026562;28;20181;-72